Flight Track Log - Related Links

Times and Time Zones

All times are in EDT time to prevent confusion due to time zone crossing. See the AAL532 flight status page for this flight to view local times or setup timezone preferences in your user account.

Time Position Orientation Groundspeed Altitude Reporting Facility
EDT Latitude Longitude Course Direction KTS MPH feet Rate Location/Type
Wed 11:17:12 PM 41.9833 -87.8167 85° East 210 242 3,400  Level Chicago TRACON
Wed 11:18:00 PM 41.9582 -87.4651 96° East  Level FlightAware Approximate
Wed 11:19:00 PM 41.9468 -87.3207 95° East  Level FlightAware Approximate
Wed 11:19:36 PM 41.9764 -87.5697 92° East 295 339 11,600  Level Chicago Center
Wed 11:20:00 PM 41.9364 -87.1763 95° East  Level FlightAware Approximate
Wed 11:20:37 PM 41.9686 -87.4358 94° East 352 405 15,100  Level Chicago Center
Wed 11:21:00 PM 41.9333 -87.0314 90° East  Level FlightAware Approximate
Wed 11:21:38 PM 41.9547 -87.2964 98° East 374 430 18,100  Level Chicago Center
Wed 11:22:00 PM 41.9381 -86.8920 85° East  Level FlightAware Approximate
Wed 11:22:39 PM 41.9400 -87.1478 98° East 399 459 21,100  Level Chicago Center
Wed 11:23:40 PM 41.9231 -86.9953 98° East 412 474 23,800 2,410 Climbing Chicago Center
Wed 11:24:41 PM 41.9056 -86.8342 98° East 433 498 26,000 2,066 Climbing Chicago Center
Wed 11:25:42 PM 41.8883 -86.6764 98° East 445 512 28,000 1,820 Climbing Chicago Center
Wed 11:26:43 PM 41.8697 -86.5058 98° East 463 533 29,700 1,770 Climbing Chicago Center
Wed 11:27:44 PM 41.8503 -86.3319 98° East 470 541 31,600 1,623 Climbing Chicago Center
Wed 11:28:45 PM 41.8258 -86.1211 99° East 479 551 33,000 689 Climbing Chicago Center
Wed 11:29:46 PM 41.8069 -85.9453 98° East 476 548 33,000  Level Chicago Center
Wed 11:30:47 PM 41.7864 -85.7694 99° East 477 549 33,000  Level Chicago Center
Wed 11:31:48 PM 41.7658 -85.5953 99° East 474 545 33,000  Level Chicago Center
Wed 11:32:49 PM 41.7461 -85.4178 98° East 471 542 33,000 -934 Level Chicago Center
Wed 11:33:50 PM 41.7203 -85.2392 101° East 479 551 31,100 -984 Descending Chicago Center
Wed 11:34:51 PM 41.6653 -85.0822 115° Southeast 464 534 31,000 -49 Descending Chicago Center
Wed 11:35:52 PM 41.6100 -84.9272 115° Southeast 460 529 31,000  Level Chicago Center
Wed 11:36:53 PM 41.5536 -84.7719 116° Southeast 463 533 31,000  Level Chicago Center
Wed 11:37:54 PM 41.4983 -84.6194 116° Southeast 459 528 31,000  Level Chicago Center
Wed 11:38:54 PM 41.4425 -84.4669 116° Southeast 458 527 31,000  Level Chicago Center
Wed 11:39:55 PM 41.3869 -84.3164 116° Southeast 454 522 31,000  Level Chicago Center
Wed 11:40:56 PM 41.3311 -84.1658 116° Southeast 454 522 31,000  Level Chicago Center
Wed 11:41:57 PM 41.2767 -84.0178 116° Southeast 452 520 31,000  Level Cleveland Center
Wed 11:42:57 PM 41.2128 -83.8542 117° Southeast 452 520 31,000  Level Cleveland Center
Wed 11:43:57 PM 41.1583 -83.7108 117° Southeast 447 514 31,000  Level Cleveland Center
Wed 11:44:57 PM 41.1019 -83.5619 117° Southeast 447 514 31,000  Level Cleveland Center
Wed 11:45:57 PM 41.0492 -83.4164 116° Southeast 436 502 31,000 -50 Level Cleveland Center
Wed 11:46:57 PM 40.9983 -83.2822 117° Southeast 436 502 30,900  Descending Cleveland Center
Wed 11:47:57 PM 40.9331 -83.1228 118° Southeast 445 512 31,000 50 Climbing Cleveland Center
Wed 11:48:57 PM 40.8781 -82.9750 116° Southeast 445 512 31,000  Level Cleveland Center
Wed 11:51:08 PM 40.7608 -82.6653 116° Southeast 445 512 31,000  Level Indianapolis Center
Wed 11:52:09 PM 40.7044 -82.5214 117° Southeast 442 509 31,000  Level Indianapolis Center
Wed 11:53:10 PM 40.6461 -82.3750 118° Southeast 448 516 31,000  Level Indianapolis Center
Wed 11:54:11 PM 40.5889 -82.2292 117° Southeast 448 516 31,000  Level Indianapolis Center
Wed 11:55:12 PM 40.5297 -82.0817 118° Southeast 454 522 31,000  Level Indianapolis Center
Wed 11:56:13 PM 40.4714 -81.9350 118° Southeast 453 521 31,000  Level Indianapolis Center
Wed 11:57:13 PM 40.4128 -81.7883 118° Southeast 453 521 31,000  Level Indianapolis Center
Wed 11:58:21 PM 40.3378 -81.6128 119° Southeast 451 519 31,000  Level Cleveland Center
Wed 11:59:21 PM 40.2764 -81.4647 118° Southeast 451 519 31,000  Level Cleveland Center
Thu 12:00:21 AM 40.2128 -81.3253 121° Southeast 451 519 31,000  Level Cleveland Center
Thu 12:02:18 AM 40.0939 -81.0661 121° Southeast 452 520 31,000  Level Indianapolis Center
Thu 12:03:18 AM 40.0303 -80.9247 120° Southeast 451 519 31,000  Level Indianapolis Center
Thu 12:04:19 AM 39.9669 -80.7844 120° Southeast 448 516 31,000  Level Indianapolis Center
Thu 12:05:20 AM 39.9019 -80.6397 120° Southeast 447 514 31,000  Level Indianapolis Center
Thu 12:06:21 AM 39.8372 -80.4989 121° Southeast 449 517 31,000  Level Indianapolis Center
Thu 12:06:38 AM 39.8217 -80.4600 118° Southeast 437 503 31,000  Level Washington Center
Thu 12:07:38 AM 39.7583 -80.3208 121° Southeast 442 509 31,000  Level Washington Center
Thu 12:08:39 AM 39.6931 -80.1817 121° Southeast 447 514 31,000  Level Washington Center
Thu 12:09:39 AM 39.6272 -80.0428 122° Southeast 447 514 31,000  Level Washington Center
Thu 12:10:40 AM 39.5700 -79.8964 117° Southeast 447 514 31,000  Level Washington Center
Thu 12:11:38 AM 39.5189 -79.7508 114° Southeast 447 514 31,000  Level Washington Center
Thu 12:12:40 AM 39.4656 -79.6053 115° Southeast 447 514 31,000  Level Washington Center
Thu 12:13:39 AM 39.4100 -79.4597 116° Southeast 452 520 31,000 -203 Level Washington Center
Thu 12:14:38 AM 39.3583 -79.3119 114° Southeast 452 520 30,600 -1,563 Descending Washington Center
Thu 12:15:38 AM 39.2983 -79.1614 117° Southeast 440 506 27,900 -2,622 Descending Washington Center
Thu 12:16:37 AM 39.2500 -79.0303 115° Southeast 427 491 25,400 -2,500 Descending Washington Center
Thu 12:17:38 AM 39.2161 -78.9003 109° East 398 458 22,900 -2,016 Descending Washington Center
Thu 12:18:39 AM 39.2050 -78.7656 96° East 380 437 21,300 -1,488 Descending Washington Center
Thu 12:19:39 AM 39.1919 -78.6339 97° East 373 429 19,900 -1,350 Descending Washington Center
Thu 12:20:39 AM 39.1783 -78.5047 98° East 373 429 18,600 -1,250 Descending Washington Center
Thu 12:21:39 AM 39.1647 -78.3783 98° East 373 429 17,400 -950 Descending Washington Center
Thu 12:22:39 AM 39.1383 -78.2569 106° East 361 415 16,700 -969 Descending Washington Center
Thu 12:23:49 AM 39.1075 -78.1381 108° East 349 402 15,300 -1,385 Descending Washington Center
Thu 12:24:49 AM 39.0728 -78.0033 108° East 344 396 13,700 -1,400 Descending Washington Center
Thu 12:25:49 AM 39.0436 -77.8900 108° East 334 384 12,500 -1,171 Descending Washington Center
Thu 12:26:52 AM 39.0164 -77.7850 108° East 316 364 11,300 -984 Descending Washington Center
Thu 12:27:51 AM 38.9889 -77.6853 110° East 306 352 10,500 -807 Descending Washington Center
Thu 12:28:51 AM 38.9656 -77.5939 108° East 284 327 9,700 -835 Descending Washington Center
Thu 12:29:10 AM 38.9500 -77.5667 126° Southeast 250 288 9,400 -911 Descending Potomac TRACON
Thu 12:30:10 AM 38.9500 -77.4833 90° East 215 247 8,500 -1,250 Descending Potomac TRACON
Thu 12:31:10 AM 38.9833 -77.4167 57° Northeast 229 264 6,900 -1,750 Descending Potomac TRACON
Thu 12:32:10 AM 38.9833 -77.3333 90° East 218 251 5,000 -1,500 Descending Potomac TRACON
Thu 12:33:10 AM 38.9833 -77.2667 90° East 201 231 3,900 -893 Descending Potomac TRACON
Thu 12:34:11 AM 38.9667 -77.2000 108° East 165 190 3,200 -689 Descending Potomac TRACON

Login

Don't have an account? Register now (free) for customized features, flight alerts, and more!